Detall de PIREP

Printer-friendly versionPDF version

[2012/01/22 14:25:00]
Flight IATA:CT1004
Pilot Number:037
Company ICAO:CAT
Aircraft Type:B752/E
PAX:177
Departing Airport: LELC
Destination Airport: GCRR
Alternate Airport:GCLP
Online: VATSIM
Route:DIMER DCT BERUM UG850 DEVLA

Flight Level:F410
No Slew and time accel
No pause
Crash detect
Detect pilot in Cockpit between each 30 and 45 minutes
14:25 Zero fuel Weight: 183443 Lbs, Fuel Weight: 30288 Lbs
14:25 VATSIM:LELC 221400Z 13004KT 100V160 CAVOK 16/09 Q1021 NOSIG
14:25 VATSIM:GCRR 221400Z 07009KT 030V100 9999 FEW035 BKN041 19/14 Q1022
14:34 Parking Brakes off
14:50 Take-off
14:50 Take off Weight: 210985 Lbs
14:50 Wind: 109º @ 004 Knots Heading: 224º
14:50 POS N37º 46´ 10´´ W000º 49´ 08´´
14:50 Gear Up: 196 Knots
14:50 Flaps:3 at 196 Knots
14:50 Flaps:2 at 201 Knots
14:50 Flaps:1 at 216 Knots
14:52 Flaps:0 at 220 Knots
15:05 Wind:229º@024 Knots Heading: 228ºGround Speed: 437 Knots Altitude 23667 ft
15:18 TOC
15:18 Fuel Weight: 21256 Lb
15:20 Wind:001º@024 Knots Heading: 219º Ground Speed: 409 Knots Altitude 41233 ft
15:35 Wind:003º@011 Knots Heading: 217º Ground Speed: 480 Knots Altitude 41200 ft
15:50 Wind:306º@011 Knots Heading: 229º Ground Speed: 467 Knots Altitude 41207 ft
16:05 Wind:277º@010 Knots Heading: 221º Ground Speed: 469 Knots Altitude 41200 ft
16:20 Wind:280º@043 Knots Heading: 252º Ground Speed: 432 Knots Altitude 41204 ft
16:32 TOD
16:32 Fuel Weight: 12170 Lb
16:35 Wind:001º@027 Knots Heading: 252º Ground Speed: 440 Knots Altitude 38398 ft
16:50 Wind:000º@022 Knots Heading: 222º Ground Speed: 315 Knots Altitude 5229 ft
16:53 Flaps:1 at 204 Knots
16:53 Flaps:2 at 197 Knots
16:54 Flaps:3 at 181 Knots
16:54 Gear Down: 179 Knots
16:54 Flaps:4 at 168 Knots
16:55 Flaps:5 at 156 Knots
16:58 TouchDown:Rate -360 ft/min Speed: 143 Knots
16:59 VATSIM:GCRR 221630Z 36011KT 320V030 9999 FEW035 SCT045 20/10 Q1022
16:59 Land
16:59 Wind:006º@011 Knots
16:59 Heading: 026º
16:59 Flight Duration: 02:09
16:59 Landing Weight: 193636 Lbs
16:59 POS N28º 56´ 40´´ W013º 36´ 20´´
17:02 Parking brakes on
17:02 Block to Block Duration: 02:28
17:02 Final Fuel: 9847 Lbls
17:02 Spent Fuel: 20440 Lbls
17:02 Flight Length: 769 NM
17:02 TOD Land Length: 143 NM

Exportar CSV

Powered by Drupal - Modified by Danger4k